createdAt,value
2023-05-17T00:02:13.363Z,94929.97
2023-05-17T00:04:39.899Z,94924.72
2023-05-17T00:07:06.447Z,94937.53
2023-05-17T00:09:32.901Z,94928.84
2023-05-17T00:11:59.360Z,94931.09
2023-05-17T00:14:25.805Z,94932.25
2023-05-17T00:16:52.215Z,94934.50
2023-05-17T00:19:18.958Z,94925.44
2023-05-17T00:21:45.456Z,94942.06
2023-05-17T00:24:11.919Z,94919.41
2023-05-17T00:26:38.392Z,94929.59
2023-05-17T00:29:04.830Z,94924.31
2023-05-17T00:31:31.358Z,94922.44
2023-05-17T00:33:57.891Z,94914.13
2023-05-17T00:36:24.315Z,94917.53
2023-05-17T00:38:50.789Z,94919.41
2023-05-17T00:41:17.233Z,94914.13
2023-05-17T00:43:43.669Z,94901.28
2023-05-17T00:46:10.133Z,94914.88
2023-05-17T00:48:36.649Z,94923.19
2023-05-17T00:51:03.152Z,94918.66
2023-05-17T00:53:29.579Z,94902.44
2023-05-17T00:55:56.013Z,94908.09
2023-05-17T00:58:22.421Z,94910.34
2023-05-17T01:00:48.982Z,94905.06
2023-05-17T01:03:15.486Z,94913.00
2023-05-17T01:05:41.951Z,94904.31
2023-05-17T01:08:08.397Z,94905.84
2023-05-17T01:10:34.809Z,94906.97
2023-05-17T01:13:01.228Z,94913.75
2023-05-17T01:15:27.918Z,94914.88
2023-05-17T01:17:54.612Z,94915.25
2023-05-17T01:20:21.230Z,94911.84
2023-05-17T01:22:47.667Z,94905.44
2023-05-17T01:25:14.163Z,94908.47
2023-05-17T01:27:40.630Z,94899.78
2023-05-17T01:30:07.060Z,94899.03
2023-05-17T01:32:33.618Z,94883.97
2023-05-17T01:35:00.152Z,94901.31
2023-05-17T01:37:26.586Z,94885.47
2023-05-17T01:39:52.997Z,94899.41
2023-05-17T01:42:19.481Z,94900.53
2023-05-17T01:44:45.984Z,94879.06
2023-05-17T01:47:12.415Z,94893.75
2023-05-17T01:49:38.881Z,94878.31
2023-05-17T01:52:05.335Z,94884.34
2023-05-17T01:54:31.784Z,94886.59
2023-05-17T01:56:58.210Z,94875.25
2023-05-17T01:59:24.622Z,94885.84
2023-05-17T02:01:51.077Z,94879.44
2023-05-17T02:04:17.629Z,94877.91
2023-05-17T02:06:44.142Z,94882.06
2023-05-17T02:09:10.560Z,94882.44
2023-05-17T02:11:36.995Z,94888.47
2023-05-17T02:14:03.458Z,94884.69
2023-05-17T02:16:29.846Z,94894.50
2023-05-17T02:18:56.358Z,94896.00
2023-05-17T02:21:22.819Z,94882.44
2023-05-17T02:23:49.260Z,94877.16
2023-05-17T02:26:15.683Z,94881.69
2023-05-17T02:28:42.117Z,94882.06
2023-05-17T02:31:08.561Z,94891.13
2023-05-17T02:33:35.088Z,94884.72
2023-05-17T02:36:01.622Z,94881.31
2023-05-17T02:38:28.048Z,94886.22
2023-05-17T02:40:54.527Z,94890.72
2023-05-17T02:43:20.927Z,94892.22
2023-05-17T02:45:47.426Z,94877.53
2023-05-17T02:48:13.879Z,94875.66
2023-05-17T02:50:40.329Z,94884.72
2023-05-17T02:53:06.775Z,94883.19
2023-05-17T02:55:33.246Z,94861.31
2023-05-17T02:57:59.662Z,94865.84
2023-05-17T03:00:26.107Z,94888.06
2023-05-17T03:02:52.695Z,94877.88
2023-05-17T03:05:19.167Z,94881.66
2023-05-17T03:07:45.613Z,94880.16
2023-05-17T03:10:12.044Z,94878.66
2023-05-17T03:12:38.485Z,94887.69
2023-05-17T03:15:04.954Z,94875.63
2023-05-17T03:17:31.630Z,94880.91
2023-05-17T03:19:58.173Z,94884.63
2023-05-17T03:22:24.669Z,94888.41
2023-05-17T03:24:51.112Z,94894.84
2023-05-17T03:27:17.584Z,94899.72
2023-05-17T03:29:44.050Z,94895.97
2023-05-17T03:32:10.504Z,94894.09
2023-05-17T03:34:37.309Z,94892.94
2023-05-17T03:37:03.759Z,94884.66
2023-05-17T03:39:30.192Z,94871.84
2023-05-17T03:41:56.655Z,94890.72
2023-05-17T03:44:23.103Z,94900.84
2023-05-17T03:46:49.517Z,94898.97
2023-05-17T03:49:16.152Z,94896.72
2023-05-17T03:51:42.709Z,94898.09
2023-05-17T03:54:09.134Z,94897.41
2023-05-17T03:56:35.670Z,94888.03
2023-05-17T03:59:02.107Z,94879.38
2023-05-17T04:01:28.693Z,94898.59
2023-05-17T04:03:55.190Z,94904.22
2023-05-17T04:06:21.682Z,94888.78
2023-05-17T04:08:48.112Z,94900.47
2023-05-17T04:11:14.549Z,94905.75
2023-05-17T04:13:41.028Z,94897.06
2023-05-17T04:16:07.493Z,94901.63
2023-05-17T04:18:34.085Z,94892.94
2023-05-17T04:21:00.547Z,94920.44
2023-05-17T04:23:27.020Z,94909.50
2023-05-17T04:25:53.448Z,94924.63
2023-05-17T04:28:19.848Z,94920.88
2023-05-17T04:30:46.284Z,94904.28
2023-05-17T04:33:14.063Z,94918.97
2023-05-17T04:35:40.799Z,94923.50
2023-05-17T04:38:07.288Z,94926.91
2023-05-17T04:40:33.796Z,94929.16
2023-05-17T04:43:00.244Z,94937.47
2023-05-17T04:45:26.771Z,94926.53
2023-05-17T04:47:53.312Z,94931.44
2023-05-17T04:50:19.826Z,94923.88
2023-05-17T04:52:46.289Z,94940.81
2023-05-17T04:55:12.797Z,94942.69
2023-05-17T04:57:39.361Z,94929.94
2023-05-17T05:00:05.813Z,94946.50
2023-05-17T05:02:32.260Z,94924.59
2023-05-17T05:04:58.705Z,94935.19
2023-05-17T05:07:25.177Z,94929.94
2023-05-17T05:09:51.587Z,94939.75
2023-05-17T05:12:18.072Z,94933.72
2023-05-17T05:14:44.504Z,94948.06
2023-05-17T05:17:10.926Z,94948.81
2023-05-17T05:19:37.401Z,94945.06
2023-05-17T05:22:03.868Z,94961.22
2023-05-17T05:24:30.288Z,94945.03
2023-05-17T05:26:56.729Z,94955.97
2023-05-17T05:29:23.213Z,94960.13
2023-05-17T05:31:50.079Z,94960.88
2023-05-17T05:34:16.544Z,94942.03
2023-05-17T05:36:42.974Z,94952.97
2023-05-17T05:39:09.407Z,94947.28
2023-05-17T05:41:35.880Z,94960.16
2023-05-17T05:44:02.312Z,94946.56
2023-05-17T05:46:28.795Z,94954.88
2023-05-17T05:48:55.331Z,94958.28
2023-05-17T05:51:22.794Z,94952.63
2023-05-17T05:53:49.340Z,94949.59
2023-05-17T05:56:15.819Z,94957.16
2023-05-17T05:58:42.308Z,94962.47
2023-05-17T06:01:08.860Z,94964.31
2023-05-17T06:03:35.313Z,94962.72
2023-05-17T06:06:02.083Z,94955.25
2023-05-17T06:08:28.602Z,94963.91
2023-05-17T06:10:55.045Z,94959.41
2023-05-17T06:13:21.468Z,94963.56
2023-05-17T06:15:47.874Z,94961.69
2023-05-17T06:18:14.494Z,94973.72
2023-05-17T06:20:41.055Z,94967.69
2023-05-17T06:23:07.504Z,94974.50
2023-05-17T06:25:33.943Z,94974.06
2023-05-17T06:28:00.387Z,94976.72
2023-05-17T06:30:27.091Z,94972.19
2023-05-17T06:32:53.768Z,94970.28
2023-05-17T06:35:20.216Z,94985.00
2023-05-17T06:37:46.646Z,94987.97
2023-05-17T06:40:16.581Z,94983.38
2023-05-17T06:42:57.850Z,94986.84
2023-05-17T06:45:24.282Z,94993.97
2023-05-17T06:47:50.775Z,94990.13
2023-05-17T06:50:17.244Z,94990.38
2023-05-17T06:52:43.831Z,94996.09
2023-05-17T06:55:10.264Z,95007.13
2023-05-17T06:57:36.723Z,95007.25
2023-05-17T07:00:03.189Z,95006.84
2023-05-17T07:02:29.695Z,95001.06
2023-05-17T07:04:56.336Z,95016.81
2023-05-17T07:07:22.801Z,94990.06
2023-05-17T07:09:49.268Z,95017.28
2023-05-17T07:12:15.697Z,94999.91
2023-05-17T07:14:42.140Z,94997.47
2023-05-17T07:17:08.548Z,95001.56
2023-05-17T07:19:35.111Z,94996.66
2023-05-17T07:22:01.662Z,95006.50
2023-05-17T07:24:28.093Z,94998.22
2023-05-17T07:26:54.519Z,95011.31
2023-05-17T07:29:20.931Z,95017.94
2023-05-17T07:31:47.369Z,95015.69
2023-05-17T07:34:13.926Z,95017.94
2023-05-17T07:36:40.526Z,95022.34
2023-05-17T07:39:06.991Z,95007.56
2023-05-17T07:41:33.462Z,95006.56
2023-05-17T07:43:59.864Z,95016.06
2023-05-17T07:46:26.302Z,95019.50
2023-05-17T07:48:57.360Z,95013.28
2023-05-17T07:51:24.869Z,95017.03
2023-05-17T07:53:51.324Z,94987.63
2023-05-17T07:56:17.748Z,95012.97
2023-05-17T07:58:44.201Z,95023.75
2023-05-17T08:01:10.623Z,95022.69
2023-05-17T08:03:37.076Z,95014.63
2023-05-17T08:06:03.560Z,95019.97
2023-05-17T08:08:30.022Z,95019.13
2023-05-17T08:10:56.456Z,95038.00
2023-05-17T08:13:22.994Z,95031.47
2023-05-17T08:15:51.535Z,95022.25
2023-05-17T08:18:18.296Z,95024.56
2023-05-17T08:20:44.818Z,95026.97
2023-05-17T08:23:11.243Z,95035.78
2023-05-17T08:25:37.717Z,95021.78
2023-05-17T08:28:04.177Z,95032.16
2023-05-17T08:30:30.654Z,95034.22
2023-05-17T08:32:57.257Z,95027.66
2023-05-17T08:35:26.965Z,95031.97
2023-05-17T08:37:54.929Z,95042.91
2023-05-17T08:40:21.457Z,95039.41
2023-05-17T08:42:47.897Z,95025.84
2023-05-17T08:45:14.311Z,95045.19
2023-05-17T08:47:40.730Z,95045.84
2023-05-17T08:50:07.171Z,95038.59
2023-05-17T08:52:33.744Z,95040.00
2023-05-17T08:55:00.319Z,95050.00
2023-05-17T08:57:26.748Z,95046.75
2023-05-17T08:59:53.151Z,95046.56
2023-05-17T09:02:19.581Z,95050.00
2023-05-17T09:04:46.135Z,95056.69
2023-05-17T09:07:13.504Z,95077.97
2023-05-17T09:09:41.023Z,95060.25
2023-05-17T09:12:07.570Z,95061.22
2023-05-17T09:14:34.110Z,95067.38
2023-05-17T09:17:00.607Z,95044.09
2023-05-17T09:19:27.120Z,95058.97
2023-05-17T09:21:53.592Z,95059.00
2023-05-17T09:24:20.030Z,95057.72
2023-05-17T09:26:46.517Z,95064.97
2023-05-17T09:29:13.022Z,95062.13
2023-05-17T09:31:39.458Z,95066.56
2023-05-17T09:34:05.962Z,95064.06
2023-05-17T09:36:32.385Z,95073.94
2023-05-17T09:38:58.943Z,95078.94
2023-05-17T09:41:25.476Z,95079.22
2023-05-17T09:43:51.933Z,95059.53
2023-05-17T09:46:18.347Z,95069.59
2023-05-17T09:48:44.864Z,95071.28
2023-05-17T09:51:11.300Z,95069.59
2023-05-17T09:53:37.729Z,95089.03
2023-05-17T09:56:04.134Z,95094.41
2023-05-17T09:58:30.540Z,95104.53
2023-05-17T10:00:56.960Z,95097.84
2023-05-17T10:03:23.531Z,95108.00
2023-05-17T10:05:49.990Z,95085.31
2023-05-17T10:08:16.401Z,95100.59
2023-05-17T10:10:42.841Z,95104.00
2023-05-17T10:13:09.257Z,95104.28
2023-05-17T10:15:35.714Z,95115.31
2023-05-17T10:18:02.235Z,95103.63
2023-05-17T10:20:28.744Z,95119.94
2023-05-17T10:22:56.306Z,95109.53
2023-05-17T10:25:23.765Z,95116.44
2023-05-17T10:27:50.172Z,95119.28
2023-05-17T10:30:16.608Z,95114.72
2023-05-17T10:32:43.101Z,95109.59
2023-05-17T10:35:14.063Z,95114.47
2023-05-17T10:37:40.543Z,95121.00
2023-05-17T10:40:06.985Z,95108.47
2023-05-17T10:42:33.404Z,95112.19
2023-05-17T10:44:59.836Z,95105.78
2023-05-17T10:47:26.297Z,95103.09
2023-05-17T10:49:52.760Z,95103.34
2023-05-17T10:52:19.220Z,95098.66
2023-05-17T10:54:45.641Z,95096.00
2023-05-17T10:57:12.147Z,95097.28
2023-05-17T10:59:38.647Z,95098.91
2023-05-17T11:02:05.044Z,95096.38
2023-05-17T11:04:31.492Z,95112.09
2023-05-17T11:06:57.910Z,95083.06
2023-05-17T11:09:24.347Z,95103.75
2023-05-17T11:11:50.765Z,95101.16
2023-05-17T11:14:17.239Z,95108.31
2023-05-17T11:16:43.688Z,95122.69
2023-05-17T11:19:10.459Z,95113.00
2023-05-17T11:21:37.028Z,95100.06
2023-05-17T11:24:03.460Z,95106.72
2023-05-17T11:26:29.885Z,95113.72
2023-05-17T11:28:56.382Z,95104.03
2023-05-17T11:31:22.821Z,95109.75
2023-05-17T11:33:49.277Z,95112.00
2023-05-17T11:36:15.734Z,95091.19
2023-05-17T11:38:42.173Z,95109.91
2023-05-17T11:41:10.490Z,95097.81
2023-05-17T11:43:42.461Z,95088.25
2023-05-17T11:46:08.885Z,95106.03
2023-05-17T11:48:35.464Z,95120.41
2023-05-17T11:51:02.476Z,95114.72
2023-05-17T11:53:29.096Z,95107.66
2023-05-17T11:55:55.520Z,95110.94
2023-05-17T11:58:21.993Z,95080.97
2023-05-17T12:00:48.413Z,95116.19
2023-05-17T12:03:14.926Z,95112.91
2023-05-17T12:05:41.451Z,95116.22
2023-05-17T12:08:07.897Z,95118.97
2023-05-17T12:10:35.019Z,95099.19
2023-05-17T12:13:01.731Z,95106.06
2023-05-17T12:15:28.126Z,95109.97
2023-05-17T12:17:54.666Z,95115.53
2023-05-17T12:20:21.169Z,95091.09
2023-05-17T12:22:47.560Z,95102.63
2023-05-17T12:25:14.014Z,95094.03
2023-05-17T12:27:40.411Z,95104.63
2023-05-17T12:30:06.829Z,95097.63
2023-05-17T12:32:33.307Z,95110.09
2023-05-17T12:34:59.810Z,95099.81
2023-05-17T12:37:26.235Z,95096.50
2023-05-17T12:39:52.651Z,95106.78
2023-05-17T12:42:19.048Z,95097.81
2023-05-17T12:44:45.472Z,95099.84
2023-05-17T12:47:11.952Z,95099.56
2023-05-17T12:49:38.366Z,95101.91
2023-05-17T12:52:04.803Z,95092.13
2023-05-17T12:54:31.305Z,95107.84
2023-05-17T12:56:57.717Z,95098.00
2023-05-17T12:59:24.158Z,95101.41
2023-05-17T13:01:50.599Z,95091.31
2023-05-17T13:04:17.077Z,95106.81
2023-05-17T13:06:44.554Z,95088.63
2023-05-17T13:09:10.961Z,95099.50
2023-05-17T13:11:37.403Z,95089.59
2023-05-17T13:14:03.851Z,95092.44
2023-05-17T13:16:30.318Z,95084.56
2023-05-17T13:18:57.020Z,95100.25
2023-05-17T13:21:23.505Z,95096.97
2023-05-17T13:23:49.934Z,95092.22
2023-05-17T13:26:16.392Z,95087.22
2023-05-17T13:28:42.827Z,95102.28
2023-05-17T13:31:09.241Z,95079.16
2023-05-17T13:33:35.761Z,95077.31
2023-05-17T13:36:02.289Z,95084.50
2023-05-17T13:38:28.710Z,95070.28
2023-05-17T13:40:55.144Z,95082.94
2023-05-17T13:43:21.568Z,95098.47
2023-05-17T13:45:47.993Z,95089.34
2023-05-17T13:48:14.508Z,95073.25
2023-05-17T13:50:40.963Z,95081.88
2023-05-17T13:53:07.405Z,95057.41
2023-05-17T13:55:33.838Z,95085.00
2023-05-17T13:58:00.254Z,95078.97
2023-05-17T14:00:26.672Z,95069.91
2023-05-17T14:02:53.164Z,95083.03
2023-05-17T14:05:19.663Z,95075.91
2023-05-17T14:07:46.103Z,95057.09
2023-05-17T14:10:12.550Z,95076.78
2023-05-17T14:12:38.958Z,95084.09
2023-05-17T14:15:05.357Z,95084.41
2023-05-17T14:17:31.821Z,95067.84
2023-05-17T14:19:58.311Z,95072.69
2023-05-17T14:22:24.748Z,95085.53
2023-05-17T14:24:51.185Z,95079.69
2023-05-17T14:27:17.625Z,95080.72
2023-05-17T14:29:44.058Z,95087.56
2023-05-17T14:32:10.454Z,95076.88
2023-05-17T14:34:38.290Z,95077.66
2023-05-17T14:37:04.735Z,95079.22
2023-05-17T14:39:31.182Z,95069.03
2023-05-17T14:41:57.584Z,95067.13
2023-05-17T14:44:24.066Z,95073.06
2023-05-17T14:46:50.454Z,95072.63
2023-05-17T14:49:16.992Z,95075.91
2023-05-17T14:51:43.550Z,95070.38
2023-05-17T14:54:11.159Z,95061.22
2023-05-17T14:56:38.656Z,95081.44
2023-05-17T14:59:05.077Z,95069.94
2023-05-17T15:01:31.521Z,95071.88
2023-05-17T15:03:58.016Z,95064.22
2023-05-17T15:06:24.508Z,95080.75
2023-05-17T15:08:50.925Z,95081.50
2023-05-17T15:11:17.359Z,95045.84
2023-05-17T15:13:43.798Z,95079.72
2023-05-17T15:16:10.282Z,95074.72
2023-05-17T15:18:36.757Z,95080.81
2023-05-17T15:21:03.214Z,95077.16
2023-05-17T15:23:29.669Z,95081.50
2023-05-17T15:25:56.065Z,95090.53
2023-05-17T15:28:22.494Z,95080.69
2023-05-17T15:30:48.959Z,95073.91
2023-05-17T15:33:15.513Z,95073.50
2023-05-17T15:35:42.023Z,95083.22
2023-05-17T15:38:08.425Z,95077.84
2023-05-17T15:40:34.874Z,95075.56
2023-05-17T15:43:01.321Z,95073.03
2023-05-17T15:45:27.953Z,95081.16
2023-05-17T15:47:54.513Z,95069.44
2023-05-17T15:50:20.932Z,95083.47
2023-05-17T15:52:47.462Z,95072.94
2023-05-17T15:55:13.875Z,95085.91
2023-05-17T15:57:40.286Z,95078.59
2023-05-17T16:00:06.686Z,95074.78
2023-05-17T16:02:33.196Z,95070.03
2023-05-17T16:05:01.780Z,95082.50
2023-05-17T16:07:29.878Z,95073.13
2023-05-17T16:09:56.350Z,95070.16
2023-05-17T16:12:22.782Z,95073.06
2023-05-17T16:14:49.185Z,95080.88
2023-05-17T16:17:15.622Z,95072.31
2023-05-17T16:19:42.066Z,95077.56
2023-05-17T16:22:08.563Z,95073.22
2023-05-17T16:24:35.248Z,95079.41
2023-05-17T16:27:01.685Z,95084.91
2023-05-17T16:29:28.137Z,95071.72
2023-05-17T16:31:54.544Z,95071.91
2023-05-17T16:34:21.201Z,95075.84
2023-05-17T16:36:47.638Z,95061.03
2023-05-17T16:39:14.082Z,95070.03
2023-05-17T16:41:41.544Z,95075.50
2023-05-17T16:44:07.975Z,95072.25
2023-05-17T16:46:34.457Z,95077.56
2023-05-17T16:49:00.935Z,95067.25
2023-05-17T16:51:27.361Z,95072.47
2023-05-17T16:53:53.766Z,95071.38
2023-05-17T16:56:20.176Z,95075.59
2023-05-17T16:58:46.635Z,95063.09
2023-05-17T17:01:13.038Z,95071.00
2023-05-17T17:03:39.488Z,95081.66
2023-05-17T17:06:05.964Z,95063.44
2023-05-17T17:08:32.411Z,95057.34
2023-05-17T17:10:58.826Z,95064.13
2023-05-17T17:13:25.262Z,95061.50
2023-05-17T17:15:51.762Z,95058.22
2023-05-17T17:18:18.293Z,95063.06
2023-05-17T17:20:44.756Z,95051.34
2023-05-17T17:23:11.198Z,95054.91
2023-05-17T17:25:37.619Z,95058.06
2023-05-17T17:28:04.063Z,95053.75
2023-05-17T17:30:30.937Z,95055.94
2023-05-17T17:32:57.853Z,95059.66
2023-05-17T17:35:24.432Z,95073.88
2023-05-17T17:37:50.877Z,95064.38
2023-05-17T17:40:17.320Z,95052.91
2023-05-17T17:42:43.740Z,95066.50
2023-05-17T17:45:11.391Z,95057.81
2023-05-17T17:47:37.924Z,95063.47
2023-05-17T17:50:04.443Z,95064.28
2023-05-17T17:52:30.894Z,95075.19
2023-05-17T17:54:57.949Z,95074.56
2023-05-17T17:57:24.366Z,95062.16
2023-05-17T17:59:50.840Z,95077.63
2023-05-17T18:02:17.308Z,95073.09
2023-05-17T18:04:43.813Z,95073.09
2023-05-17T18:07:10.289Z,95073.41
2023-05-17T18:09:36.720Z,95077.78
2023-05-17T18:12:03.220Z,95063.63
2023-05-17T18:14:29.661Z,95065.28
2023-05-17T18:16:56.222Z,95063.22
2023-05-17T18:19:22.756Z,95069.84
2023-05-17T18:21:49.255Z,95071.16
2023-05-17T18:24:15.690Z,95069.88
2023-05-17T18:26:42.103Z,95067.47
2023-05-17T18:29:08.561Z,95070.44
2023-05-17T18:31:35.019Z,95077.78
2023-05-17T18:34:01.451Z,95071.41
2023-05-17T18:36:30.746Z,95062.84
2023-05-17T18:38:57.154Z,95068.06
2023-05-17T18:41:23.790Z,95073.31
2023-05-17T18:43:50.205Z,95059.91
2023-05-17T18:46:16.650Z,95070.38
2023-05-17T18:48:43.156Z,95060.28
2023-05-17T18:51:09.582Z,95064.16
2023-05-17T18:53:36.036Z,95064.00
2023-05-17T18:56:02.568Z,95069.38
2023-05-17T18:58:29.100Z,95068.94
2023-05-17T19:00:55.633Z,95071.47
2023-05-17T19:03:22.126Z,95077.94
2023-05-17T19:05:48.634Z,95072.59
2023-05-17T19:08:15.105Z,95074.56
2023-05-17T19:10:41.574Z,95073.38
2023-05-17T19:13:08.115Z,95076.47
2023-05-17T19:15:34.583Z,95073.44
2023-05-17T19:18:01.386Z,95079.84
2023-05-17T19:20:28.178Z,95079.59
2023-05-17T19:22:54.995Z,95087.41
2023-05-17T19:25:21.763Z,95076.09
2023-05-17T19:27:48.276Z,95076.09
2023-05-17T19:30:14.798Z,95077.81
2023-05-17T19:32:41.319Z,95074.78
2023-05-17T19:35:08.080Z,95078.50
2023-05-17T19:37:34.553Z,95079.34
2023-05-17T19:40:01.130Z,95086.00
2023-05-17T19:42:27.602Z,95080.84
2023-05-17T19:44:54.191Z,95074.06
2023-05-17T19:47:20.863Z,95083.56
2023-05-17T19:49:47.375Z,95088.47
2023-05-17T19:52:13.868Z,95098.78
2023-05-17T19:54:40.428Z,95085.53
2023-05-17T19:57:07.031Z,95084.06
2023-05-17T19:59:33.555Z,95091.56
2023-05-17T20:02:00.045Z,95095.28
2023-05-17T20:04:26.701Z,95099.41
2023-05-17T20:06:53.222Z,95100.53
2023-05-17T20:09:20.767Z,95099.31
2023-05-17T20:11:47.520Z,95097.34
2023-05-17T20:14:14.015Z,95098.53
2023-05-17T20:16:40.577Z,95098.19
2023-05-17T20:19:07.141Z,95099.63
2023-05-17T20:21:33.733Z,95104.22
2023-05-17T20:24:00.181Z,95103.56
2023-05-17T20:26:26.725Z,95096.69
2023-05-17T20:28:53.175Z,95104.56
2023-05-17T20:31:22.007Z,95107.41
2023-05-17T20:33:48.526Z,95101.28
2023-05-17T20:36:15.018Z,95104.84
2023-05-17T20:38:41.477Z,95100.84
2023-05-17T20:41:07.987Z,95106.75
2023-05-17T20:43:34.412Z,95096.19
2023-05-17T20:46:00.906Z,95084.19
2023-05-17T20:48:27.408Z,95097.94
2023-05-17T20:50:53.840Z,95080.84
2023-05-17T20:53:20.286Z,95096.34
2023-05-17T20:55:46.698Z,95093.28
2023-05-17T20:58:13.110Z,95096.31
2023-05-17T21:00:39.554Z,95094.78
2023-05-17T21:03:06.065Z,95094.06
2023-05-17T21:05:32.684Z,95089.84
2023-05-17T21:08:00.135Z,95090.97
2023-05-17T21:10:26.768Z,95092.59
2023-05-17T21:12:53.323Z,95091.72
2023-05-17T21:15:19.748Z,95083.88
2023-05-17T21:17:46.242Z,95078.94
2023-05-17T21:20:13.029Z,95078.94
2023-05-17T21:22:39.458Z,95088.75
2023-05-17T21:25:05.897Z,95086.09
2023-05-17T21:27:32.430Z,95081.53
2023-05-17T21:29:58.862Z,95084.91
2023-05-17T21:32:25.366Z,95083.13
2023-05-17T21:34:53.802Z,95082.09
2023-05-17T21:37:20.980Z,95088.13
2023-05-17T21:39:47.424Z,95071.22
2023-05-17T21:42:13.850Z,95073.88
2023-05-17T21:44:40.324Z,95076.88
2023-05-17T21:47:06.796Z,95075.31
2023-05-17T21:49:33.279Z,95075.69
2023-05-17T21:51:59.753Z,95080.56
2023-05-17T21:54:26.150Z,95080.59
2023-05-17T21:56:52.694Z,95072.28
2023-05-17T21:59:19.127Z,95072.97
2023-05-17T22:01:45.646Z,95074.13
2023-05-17T22:04:12.212Z,95074.56
2023-05-17T22:06:38.621Z,95073.41
2023-05-17T22:09:05.066Z,95070.84
2023-05-17T22:11:31.485Z,95081.81
2023-05-17T22:13:57.925Z,95073.84
2023-05-17T22:16:24.436Z,95071.94
2023-05-17T22:18:50.989Z,95075.34
2023-05-17T22:21:17.410Z,95071.13
2023-05-17T22:23:43.846Z,95069.25
2023-05-17T22:26:10.321Z,95062.81
2023-05-17T22:28:36.744Z,95063.22
2023-05-17T22:31:03.163Z,95058.31
2023-05-17T22:33:29.682Z,95060.22
2023-05-17T22:35:56.302Z,95058.72
2023-05-17T22:38:22.723Z,95059.47
2023-05-17T22:40:49.187Z,95054.94
2023-05-17T22:43:15.616Z,95057.63
2023-05-17T22:45:42.036Z,95054.59
2023-05-17T22:48:08.487Z,95053.56
2023-05-17T22:50:34.952Z,95051.34
2023-05-17T22:53:01.522Z,95044.47
2023-05-17T22:55:27.965Z,95055.06
2023-05-17T22:57:54.479Z,95056.56
2023-05-17T23:00:20.902Z,95055.91
2023-05-17T23:02:47.456Z,95050.97
2023-05-17T23:05:14.040Z,95044.53
2023-05-17T23:07:40.478Z,95050.63
2023-05-17T23:10:06.900Z,95048.75
2023-05-17T23:12:33.444Z,95051.38
2023-05-17T23:14:59.873Z,95049.16
2023-05-17T23:17:26.326Z,95049.53
2023-05-17T23:19:52.772Z,95054.44
2023-05-17T23:22:19.188Z,95046.91
2023-05-17T23:24:45.620Z,95051.41
2023-05-17T23:27:12.020Z,95048.06
2023-05-17T23:29:38.452Z,95053.00
2023-05-17T23:32:05.018Z,95041.66
2023-05-17T23:34:31.729Z,95043.97
2023-05-17T23:36:58.121Z,95040.91
2023-05-17T23:39:24.566Z,95027.28
2023-05-17T23:41:51.055Z,95037.88
2023-05-17T23:44:17.551Z,95031.44
2023-05-17T23:46:44.072Z,95032.63
2023-05-17T23:49:10.596Z,95028.06
2023-05-17T23:51:36.992Z,95025.09
2023-05-17T23:54:03.436Z,95025.09
2023-05-17T23:56:30.303Z,95023.56
2023-05-17T23:58:56.743Z,95023.59
